Time;durP1;ratioP1;P1;durP2;ratioP2;P2;SDS_P1;SDS_P2;PMS_P1;PMS_P2;Temp;Humidity;BMP_temperature;BMP_pressure;BME280_temperature;BME280_humidity;BME280_pressure;Samples;Min_cycle;Max_cycle;Signal;HPM_P1;HPM_P2
2021/04/02 00:00:14;;;;;;;10.40;2.42;;;5.60;99.90;;;;;;5072653;28;20072;-76
2021/04/02 00:02:40;;;;;;;3.65;2.00;;;5.50;99.90;;;;;;5055257;28;20071;-76
2021/04/02 00:05:06;;;;;;;11.27;2.35;;;5.50;99.90;;;;;;5059769;28;20441;-77
2021/04/02 00:07:32;;;;;;;8.88;1.80;;;5.50;99.90;;;;;;5058633;28;20488;-77
2021/04/02 00:12:42;;;;;;;8.63;1.95;;;5.50;99.90;;;;;;5071865;28;20162;-78
2021/04/02 00:15:11;;;;;;;4.30;1.60;;;5.50;99.90;;;;;;5073003;28;20485;-79
2021/04/02 00:17:36;;;;;;;8.38;2.20;;;5.40;99.90;;;;;;5046061;28;20035;-78
2021/04/02 00:20:06;;;;;;;5.95;1.58;;;5.40;99.90;;;;;;5063209;28;20548;-78
2021/04/02 00:22:32;;;;;;;3.97;1.85;;;5.40;99.90;;;;;;5069926;28;20028;-77
2021/04/02 00:24:58;;;;;;;4.63;1.85;;;5.40;99.90;;;;;;5074300;28;20029;-78
2021/04/02 00:27:23;;;;;;;3.63;1.75;;;5.40;99.90;;;;;;5045887;28;20029;-77
2021/04/02 00:29:49;;;;;;;6.10;1.90;;;5.40;99.90;;;;;;5065231;28;20107;-77
2021/04/02 00:32:14;;;;;;;3.80;1.67;;;5.40;99.90;;;;;;5069442;28;20413;-78
2021/04/02 00:34:40;;;;;;;6.32;1.77;;;5.40;99.90;;;;;;5073718;28;20101;-77
2021/04/02 00:37:06;;;;;;;2.83;2.13;;;5.40;99.90;;;;;;5054433;28;20040;-76
2021/04/02 00:39:31;;;;;;;14.18;2.03;;;5.40;99.90;;;;;;5073606;28;20056;-77
2021/04/02 00:41:57;;;;;;;8.20;1.73;;;5.30;99.90;;;;;;5072601;28;20031;-78
2021/04/02 00:44:22;;;;;;;4.90;1.90;;;5.30;99.90;;;;;;5055726;28;20029;-77
2021/04/02 00:46:48;;;;;;;7.00;1.67;;;5.30;99.90;;;;;;5073185;28;20032;-77
2021/04/02 00:49:14;;;;;;;5.45;1.77;;;5.30;99.90;;;;;;5072605;28;20388;-77
2021/04/02 00:51:39;;;;;;;6.82;1.92;;;5.30;99.90;;;;;;5070094;28;20021;-77
2021/04/02 00:54:05;;;;;;;9.13;2.15;;;5.20;99.90;;;;;;5051310;28;20033;-76
2021/04/02 00:56:31;;;;;;;6.50;1.60;;;5.20;99.90;;;;;;5064043;28;20017;-76
2021/04/02 00:58:57;;;;;;;3.85;1.40;;;5.20;99.90;;;;;;5072987;28;20465;-76
2021/04/02 01:01:23;;;;;;;5.10;1.50;;;5.20;99.90;;;;;;5072898;28;20047;-76
2021/04/02 01:03:48;;;;;;;13.52;2.17;;;5.20;99.90;;;;;;5072259;28;20025;-75
2021/04/02 01:06:22;;;;;;;10.40;2.22;;;5.20;99.90;;;;;;5071650;28;20067;-75
2021/04/02 01:08:49;;;;;;;5.63;2.00;;;5.20;99.90;;;;;;5071131;28;20389;-75
2021/04/02 01:11:17;;;;;;;10.57;1.70;;;5.10;99.90;;;;;;5073049;28;20020;-76
2021/04/02 01:13:48;;;;;;;10.07;1.55;;;5.10;99.90;;;;;;5046118;28;20373;-77
2021/04/02 01:16:26;;;;;;;4.32;1.75;;;5.10;99.90;;;;;;5072395;28;20531;-76
2021/04/02 01:19:03;;;;;;;7.25;1.27;;;5.10;99.90;;;;;;5054115;28;20036;-78
2021/04/02 01:21:30;;;;;;;12.70;2.70;;;5.00;99.90;;;;;;5053564;28;20035;-78
2021/04/02 01:24:22;;;;;;;11.43;2.00;;;5.10;99.90;;;;;;5071998;28;20036;-77
2021/04/02 01:27:06;;;;;;;3.65;1.50;;;5.00;99.90;;;;;;5072890;28;20063;-76
2021/04/02 01:29:41;;;;;;;12.30;1.95;;;5.00;99.90;;;;;;5072041;28;20028;-76
2021/04/02 01:32:11;;;;;;;5.70;1.90;;;5.00;99.90;;;;;;5064182;28;20055;-77
2021/04/02 01:34:42;;;;;;;7.82;1.40;;;4.90;99.90;;;;;;5070389;28;20033;-77
2021/04/02 01:37:13;;;;;;;9.02;1.60;;;4.90;99.90;;;;;;5072826;28;20024;-77
2021/04/02 01:39:42;;;;;;;4.03;1.67;;;4.90;99.90;;;;;;5071162;28;20485;-77
2021/04/02 01:42:11;;;;;;;4.20;1.60;;;4.90;99.90;;;;;;5071231;28;20028;-77
2021/04/02 01:44:38;;;;;;;3.53;1.38;;;4.90;99.90;;;;;;5061122;28;20036;-76
2021/04/02 01:47:06;;;;;;;7.47;1.60;;;4.90;99.90;;;;;;5072353;28;20515;-77
2021/04/02 01:49:32;;;;;;;;;;;4.90;99.90;;;;;;5073412;28;20089;-77
2021/04/02 01:51:58;;;;;;;4.78;1.85;;;4.90;99.90;;;;;;5053348;28;19908;-75
2021/04/02 01:54:24;;;;;;;4.55;1.35;;;4.90;99.90;;;;;;5070337;28;20017;-76
2021/04/02 01:56:52;;;;;;;4.93;1.33;;;5.00;99.90;;;;;;5065383;28;20032;-75
2021/04/02 01:59:20;;;;;;;6.97;1.50;;;5.00;99.90;;;;;;5060119;28;20029;-76
2021/04/02 02:01:47;;;;;;;10.57;1.77;;;5.10;99.90;;;;;;5067518;28;20053;-76
2021/04/02 02:04:15;;;;;;;6.70;1.13;;;5.10;99.90;;;;;;5036997;28;20072;-78
2021/04/02 02:06:40;;;;;;;3.72;1.05;;;5.20;99.90;;;;;;5061968;28;20031;-78
2021/04/02 02:09:11;;;;;;;5.32;1.65;;;5.20;99.90;;;;;;5064705;28;20377;-76
2021/04/02 02:11:40;;;;;;;4.95;1.25;;;5.30;99.90;;;;;;5067938;28;20029;-76
2021/04/02 02:14:10;;;;;;;5.47;1.33;;;5.30;99.90;;;;;;5057406;28;20047;-76
2021/04/02 02:16:40;;;;;;;4.63;1.65;;;5.20;99.90;;;;;;5041954;28;20024;-76
2021/04/02 02:19:19;;;;;;;11.60;2.47;;;5.20;99.90;;;;;;5069074;28;20016;-77
2021/04/02 02:21:50;;;;;;;8.32;3.08;;;5.20;99.90;;;;;;5059367;28;20064;-74
2021/04/02 02:24:17;;;;;;;10.73;4.63;;;5.20;99.90;;;;;;5040623;28;20485;-75
2021/04/02 02:26:44;;;;;;;15.45;4.75;;;5.20;99.90;;;;;;5035559;28;20116;-75
2021/04/02 02:29:10;;;;;;;12.88;5.97;;;5.30;99.90;;;;;;5059665;28;20028;-77
2021/04/02 02:31:37;;;;;;;12.80;5.57;;;5.30;99.90;;;;;;5054766;28;20064;-76
2021/04/02 02:34:04;;;;;;;9.02;5.32;;;5.30;99.90;;;;;;5056746;28;20819;-76
2021/04/02 02:36:31;;;;;;;19.00;6.35;;;5.30;99.90;;;;;;5052686;28;20143;-76
2021/04/02 02:38:57;;;;;;;13.68;6.05;;;5.20;99.90;;;;;;5046525;28;20082;-76
2021/04/02 02:41:28;;;;;;;17.35;6.53;;;5.20;99.90;;;;;;5062592;28;20507;-77
2021/04/02 02:43:55;;;;;;;14.88;6.57;;;5.10;99.90;;;;;;5054980;28;20453;-77
2021/04/02 02:46:20;;;;;;;17.70;7.57;;;5.20;99.90;;;;;;5057891;28;20097;-77
2021/04/02 02:48:48;;;;;;;22.77;8.75;;;5.10;99.90;;;;;;5059620;28;20492;-76
2021/04/02 02:51:15;;;;;;;22.45;8.82;;;5.10;99.90;;;;;;5051504;28;20086;-76
2021/04/02 02:53:42;;;;;;;23.67;9.32;;;5.20;99.90;;;;;;5059544;28;20119;-77
2021/04/02 02:56:09;;;;;;;20.85;9.10;;;5.20;99.90;;;;;;5056397;28;20029;-76
2021/04/02 02:58:37;;;;;;;18.10;8.80;;;5.10;99.90;;;;;;5067045;28;20195;-77
2021/04/02 03:01:04;;;;;;;27.42;10.32;;;5.10;99.90;;;;;;5063332;28;20377;-76
2021/04/02 03:03:31;;;;;;;18.25;9.93;;;5.20;99.90;;;;;;5065494;28;20028;-75
2021/04/02 03:05:59;;;;;;;30.38;12.52;;;5.20;99.90;;;;;;5060598;28;20101;-76
2021/04/02 03:08:25;;;;;;;;;;;5.20;99.90;;;;;;5059204;28;20497;-75
2021/04/02 03:10:51;;;;;;;24.75;8.52;;;5.20;99.90;;;;;;5063762;28;19908;-76
2021/04/02 03:13:20;;;;;;;18.15;8.45;;;5.20;99.90;;;;;;5042634;28;20027;-76
2021/04/02 03:15:48;;;;;;;16.63;6.22;;;5.20;99.90;;;;;;5074223;28;20029;-77
2021/04/02 03:18:19;;;;;;;16.77;4.90;;;5.20;99.90;;;;;;5056275;28;20043;-76
2021/04/02 03:20:48;;;;;;;8.80;4.05;;;5.30;99.90;;;;;;5067062;28;20535;-76
2021/04/02 03:23:15;;;;;;;8.57;3.67;;;5.30;99.90;;;;;;5075687;28;20021;-75
2021/04/02 03:25:43;;;;;;;4.18;2.03;;;5.30;99.90;;;;;;5074850;28;20024;-76
2021/04/02 03:28:11;;;;;;;5.15;2.55;;;5.30;99.90;;;;;;5074963;28;20434;-77
2021/04/02 03:30:37;;;;;;;3.05;1.92;;;5.40;99.90;;;;;;5073764;28;20020;-76
2021/04/02 03:33:29;;;;;;;4.00;1.73;;;5.30;99.90;;;;;;5074491;28;20029;-76
2021/04/02 03:35:59;;;;;;;4.65;1.90;;;5.30;99.90;;;;;;5051288;28;20499;-78
2021/04/02 03:38:29;;;;;;;7.40;1.60;;;5.30;99.90;;;;;;5074670;28;20032;-78
2021/04/02 03:40:56;;;;;;;5.22;1.40;;;5.30;99.90;;;;;;5073918;28;20054;-77
2021/04/02 03:43:24;;;;;;;3.95;1.58;;;5.30;99.90;;;;;;5055945;28;20037;-78
2021/04/02 03:45:50;;;;;;;11.10;2.08;;;5.30;99.90;;;;;;5059434;28;20064;-77
2021/04/02 03:48:19;;;;;;;3.40;1.42;;;5.30;99.90;;;;;;5073119;28;20059;-77
2021/04/02 03:50:51;;;;;;;6.07;2.22;;;5.30;99.90;;;;;;5067275;28;20020;-77
2021/04/02 03:53:31;;;;;;;8.65;2.22;;;5.30;99.90;;;;;;5071223;28;20040;-76
2021/04/02 03:55:59;;;;;;;7.57;2.38;;;5.40;99.90;;;;;;5052723;28;20029;-77
2021/04/02 03:58:26;;;;;;;11.18;2.05;;;5.40;99.90;;;;;;5075198;28;20551;-77
2021/04/02 04:01:04;;;;;;;6.88;2.47;;;5.40;99.90;;;;;;5051322;28;20082;-77
2021/04/02 04:03:32;;;;;;;10.50;2.65;;;5.40;99.90;;;;;;5073570;28;20063;-76
2021/04/02 04:05:59;;;;;;;9.67;1.93;;;5.30;99.90;;;;;;5073073;28;20054;-76
2021/04/02 04:08:25;;;;;;;13.02;2.22;;;5.40;99.90;;;;;;5055718;28;20287;-77
2021/04/02 04:10:52;;;;;;;9.05;2.65;;;5.40;99.90;;;;;;5054962;28;20051;-75
2021/04/02 04:13:20;;;;;;;8.63;2.10;;;5.30;99.90;;;;;;5072263;28;20029;-76
2021/04/02 04:15:47;;;;;;;;;;;5.30;99.90;;;;;;5067975;28;20090;-76
2021/04/02 04:18:14;;;;;;;8.93;2.42;;;5.40;99.90;;;;;;5055905;28;20387;-75
2021/04/02 04:20:42;;;;;;;14.70;2.83;;;5.40;99.90;;;;;;5068998;28;20090;-76
2021/04/02 04:23:09;;;;;;;6.72;1.65;;;5.40;99.90;;;;;;5054924;28;20039;-75
2021/04/02 04:25:37;;;;;;;8.73;2.03;;;5.30;99.90;;;;;;5072565;28;20017;-76
2021/04/02 04:28:04;;;;;;;9.88;2.40;;;5.30;99.90;;;;;;5073322;28;20040;-76
2021/04/02 04:30:31;;;;;;;9.03;1.83;;;5.20;99.90;;;;;;5073233;28;20025;-75
2021/04/02 04:32:59;;;;;;;11.32;2.17;;;5.30;99.90;;;;;;5071244;28;20070;-76
2021/04/02 04:35:25;;;;;;;7.60;2.83;;;5.30;99.90;;;;;;5073059;28;20059;-75
2021/04/02 04:37:52;;;;;;;6.50;1.90;;;5.30;99.90;;;;;;5052343;28;20043;-75
2021/04/02 04:40:23;;;;;;;9.77;2.05;;;5.30;99.90;;;;;;5062818;28;20021;-75
2021/04/02 04:42:48;;;;;;;4.22;1.60;;;5.30;99.90;;;;;;5047840;28;20035;-74
2021/04/02 04:45:18;;;;;;;8.85;2.33;;;5.30;99.90;;;;;;5042153;28;20135;-76
2021/04/02 04:47:44;;;;;;;18.85;1.90;;;5.30;99.90;;;;;;5066533;28;20518;-77
2021/04/02 04:50:11;;;;;;;8.88;2.15;;;5.30;99.90;;;;;;5069979;28;20021;-76
2021/04/02 04:52:43;;;;;;;5.85;2.40;;;5.30;99.90;;;;;;5055222;28;20075;-77
2021/04/02 04:55:14;;;;;;;8.18;1.30;;;5.30;99.90;;;;;;5069467;28;20021;-76
2021/04/02 04:57:44;;;;;;;9.07;1.67;;;5.30;99.90;;;;;;5073289;28;20056;-76
2021/04/02 05:00:12;;;;;;;18.90;2.00;;;5.30;99.90;;;;;;5055142;28;20025;-76
2021/04/02 05:02:42;;;;;;;6.53;1.88;;;5.30;99.90;;;;;;5051339;28;20503;-77
2021/04/02 05:05:09;;;;;;;12.50;2.30;;;5.40;99.90;;;;;;5055096;28;20032;-75
2021/04/02 05:07:37;;;;;;;6.78;1.63;;;5.40;99.90;;;;;;5071064;28;20033;-77
2021/04/02 05:10:03;;;;;;;7.40;1.60;;;5.30;99.90;;;;;;5051833;28;20064;-77
2021/04/02 05:12:30;;;;;;;14.65;2.55;;;5.30;99.90;;;;;;5072819;28;20032;-75
2021/04/02 05:14:57;;;;;;;4.82;1.80;;;5.30;99.90;;;;;;5073947;28;20028;-74
2021/04/02 05:17:23;;;;;;;12.23;1.63;;;5.30;99.90;;;;;;5068488;28;20063;-75
2021/04/02 05:19:51;;;;;;;9.43;1.65;;;5.30;99.90;;;;;;5069315;28;20029;-76
2021/04/02 05:22:16;;;;;;;11.20;1.85;;;5.30;99.90;;;;;;5092037;28;20013;-75
2021/04/02 05:24:42;;;;;;;10.90;1.73;;;5.30;99.90;;;;;;5072701;28;20031;-78
2021/04/02 05:27:08;;;;;;;19.90;2.00;;;5.30;99.90;;;;;;5078815;28;20032;-75
2021/04/02 05:29:33;;;;;;;5.07;1.33;;;5.40;99.90;;;;;;5057448;28;20435;-77
2021/04/02 05:32:00;;;;;;;12.48;2.13;;;5.30;99.90;;;;;;5075222;28;20047;-77
2021/04/02 05:34:26;;;;;;;7.10;1.40;;;5.40;99.90;;;;;;5071895;28;20052;-77
2021/04/02 05:36:51;;;;;;;17.73;4.10;;;5.40;99.90;;;;;;5053949;28;20020;-78
2021/04/02 05:39:17;;;;;;;10.80;1.77;;;5.40;99.90;;;;;;5073350;28;20028;-77
2021/04/02 05:41:53;;;;;;;7.43;2.88;;;5.40;99.90;;;;;;5071979;28;20024;-78
2021/04/02 05:44:25;;;;;;;6.53;1.80;;;5.40;99.90;;;;;;5049202;28;20024;-76
2021/04/02 05:46:54;;;;;;;12.77;2.33;;;5.40;99.90;;;;;;5052324;28;20358;-76
2021/04/02 05:49:21;;;;;;;13.13;2.15;;;5.40;99.90;;;;;;5069257;28;20043;-77
2021/04/02 05:51:50;;;;;;;7.32;1.70;;;5.40;99.90;;;;;;5072387;28;20025;-77
2021/04/02 05:54:38;;;;;;;7.60;1.85;;;5.50;99.90;;;;;;5054774;28;20031;-77
2021/04/02 05:57:04;;;;;;;9.73;1.80;;;5.50;99.90;;;;;;5072560;28;20507;-77
2021/04/02 05:59:30;;;;;;;13.05;2.40;;;5.60;99.90;;;;;;5072933;28;20032;-76
2021/04/02 06:01:56;;;;;;;14.38;1.90;;;5.70;99.90;;;;;;5053612;28;20516;-76
2021/04/02 06:04:21;;;;;;;10.25;1.92;;;5.80;99.90;;;;;;5068727;28;20036;-76
2021/04/02 06:06:48;;;;;;;4.13;2.08;;;5.90;99.90;;;;;;5072828;28;20427;-76
2021/04/02 06:09:13;;;;;;;6.78;2.10;;;6.10;99.90;;;;;;5072058;28;20074;-77
2021/04/02 06:11:40;;;;;;;13.13;2.58;;;6.10;99.90;;;;;;5051722;28;20041;-74
2021/04/02 06:14:07;;;;;;;6.45;2.45;;;6.20;99.90;;;;;;5067819;28;20056;-75
2021/04/02 06:16:32;;;;;;;7.50;2.47;;;6.40;99.90;;;;;;5071845;28;20067;-76
2021/04/02 06:19:09;;;;;;;9.07;2.17;;;6.50;99.90;;;;;;5069833;28;20422;-75
2021/04/02 06:21:45;;;;;;;15.27;3.25;;;6.70;99.90;;;;;;5070988;28;20170;-76
2021/04/02 06:24:12;;;;;;;9.50;2.60;;;6.70;99.90;;;;;;5066810;28;20454;-76
2021/04/02 06:26:38;;;;;;;6.72;1.65;;;6.70;99.90;;;;;;5072026;28;20021;-77
2021/04/02 06:29:03;;;;;;;13.27;2.30;;;6.80;99.90;;;;;;5054373;28;20431;-76
2021/04/02 06:31:31;;;;;;;6.05;1.90;;;6.90;99.90;;;;;;5055484;28;20051;-76
2021/04/02 06:33:56;;;;;;;13.93;2.17;;;6.90;99.90;;;;;;5070367;28;20120;-76
2021/04/02 06:36:28;;;;;;;9.88;2.35;;;7.00;99.90;;;;;;5054421;28;20456;-74
2021/04/02 06:38:55;;;;;;;13.48;1.80;;;7.10;99.90;;;;;;5070807;28;20078;-76
2021/04/02 06:41:25;;;;;;;11.35;1.75;;;7.10;99.90;;;;;;5071505;28;20078;-75
2021/04/02 06:43:55;;;;;;;27.80;2.80;;;7.20;99.90;;;;;;5068363;28;20455;-76
2021/04/02 06:46:28;;;;;;;7.53;1.73;;;7.20;99.90;;;;;;5036708;28;20029;-76
2021/04/02 06:48:55;;;;;;;7.45;2.13;;;7.20;99.90;;;;;;5061080;28;20029;-74
2021/04/02 06:51:23;;;;;;;8.82;1.65;;;7.40;99.90;;;;;;5052676;28;20051;-76
2021/04/02 06:53:53;;;;;;;12.20;2.33;;;7.40;99.90;;;;;;5068842;28;20025;-75
2021/04/02 06:56:21;;;;;;;12.13;1.58;;;7.40;99.90;;;;;;5056938;28;20476;-76
2021/04/02 06:58:49;;;;;;;7.72;2.25;;;7.40;99.90;;;;;;5059439;28;20029;-75
2021/04/02 07:01:15;;;;;;;;;;;7.50;99.90;;;;;;5077508;28;20068;-76
2021/04/02 07:03:42;;;;;;;4.90;1.30;;;7.50;99.90;;;;;;5089746;28;19968;-74
2021/04/02 07:06:08;;;;;;;10.15;2.28;;;7.50;99.90;;;;;;5093281;28;20126;-76
2021/04/02 07:08:37;;;;;;;9.90;1.95;;;7.60;99.90;;;;;;5088654;28;20032;-75
2021/04/02 07:11:04;;;;;;;6.43;1.70;;;7.60;99.90;;;;;;5079104;28;20100;-73
2021/04/02 07:13:36;;;;;;;3.42;1.50;;;7.70;99.90;;;;;;5077361;28;20033;-74
2021/04/02 07:16:02;;;;;;;10.35;1.90;;;7.90;99.90;;;;;;5096498;28;20040;-75
2021/04/02 07:18:29;;;;;;;5.97;1.83;;;7.80;99.90;;;;;;5081772;28;20046;-75
2021/04/02 07:20:55;;;;;;;4.88;1.35;;;7.90;99.90;;;;;;5079990;28;20067;-78
2021/04/02 07:23:20;;;;;;;8.23;1.30;;;8.00;99.90;;;;;;5056542;28;20111;-74
2021/04/02 07:25:46;;;;;;;6.93;2.03;;;8.00;99.90;;;;;;5073576;28;20063;-75
2021/04/02 07:28:12;;;;;;;6.93;1.20;;;8.10;99.90;;;;;;5051118;28;20047;-78
2021/04/02 07:30:38;;;;;;;7.97;2.03;;;8.10;99.90;;;;;;5052467;28;20028;-72
2021/04/02 07:33:09;;;;;;;5.68;1.30;;;8.10;99.90;;;;;;5074336;28;20024;-73
2021/04/02 07:35:39;;;;;;;2.92;0.98;;;8.20;99.90;;;;;;5070685;28;20033;-73
2021/04/02 07:38:13;;;;;;;3.72;1.02;;;8.10;99.90;;;;;;5070822;28;20463;-75
2021/04/02 07:40:39;;;;;;;9.88;1.25;;;8.20;99.90;;;;;;5073430;28;20031;-72
2021/04/02 07:43:07;;;;;;;12.82;1.60;;;8.10;99.90;;;;;;5068779;28;20111;-72
2021/04/02 07:45:35;;;;;;;7.45;1.27;;;8.10;99.90;;;;;;5054032;28;20071;-72
2021/04/02 07:48:15;;;;;;;8.98;1.63;;;8.10;99.90;;;;;;5072715;28;20028;-73
2021/04/02 07:50:53;;;;;;;11.80;1.80;;;8.10;99.90;;;;;;5050446;28;20032;-72
2021/04/02 07:53:23;;;;;;;4.80;1.08;;;8.10;99.90;;;;;;5070677;28;20024;-72
2021/04/02 07:56:01;;;;;;;6.50;0.82;;;8.00;99.90;;;;;;5062971;28;20028;-74
2021/04/02 07:58:29;;;;;;;7.50;1.33;;;8.20;99.90;;;;;;5064173;28;20507;-72
2021/04/02 08:00:57;;;;;;;6.50;1.83;;;8.30;99.90;;;;;;5063843;28;20548;-73
2021/04/02 08:03:29;;;;;;;7.60;1.10;;;8.40;99.90;;;;;;5049750;28;20029;-74
2021/04/02 08:05:59;;;;;;;9.02;2.10;;;8.30;99.90;;;;;;5069028;28;20056;-72
2021/04/02 08:08:26;;;;;;;6.30;0.95;;;8.30;99.90;;;;;;5069951;28;20079;-71
2021/04/02 08:11:33;;;;;;;7.63;1.02;;;8.10;99.90;;;;;;5073040;28;20033;-72
2021/04/02 08:14:08;;;;;;;7.82;1.23;;;8.20;99.90;;;;;;4993171;28;20037;-73
2021/04/02 08:16:43;;;;;;;5.43;1.83;;;8.20;99.90;;;;;;4993043;28;20466;-77
2021/04/02 08:19:13;;;;;;;3.17;1.25;;;8.20;99.90;;;;;;5034269;28;20093;-72
2021/04/02 08:21:51;;;;;;;3.83;1.42;;;8.30;99.90;;;;;;5073325;28;20532;-74
2021/04/02 08:24:19;;;;;;;11.47;1.43;;;8.30;99.90;;;;;;5068545;28;20416;-72
2021/04/02 08:26:46;;;;;;;13.35;1.50;;;8.20;99.90;;;;;;5070062;28;20267;-72
2021/04/02 08:29:14;;;;;;;11.15;1.17;;;8.40;99.90;;;;;;5066043;28;20420;-72
2021/04/02 08:31:46;;;;;;;5.65;1.80;;;8.60;99.90;;;;;;5040731;28;20028;-72
2021/04/02 08:34:17;;;;;;;7.13;1.20;;;8.50;99.90;;;;;;5074711;28;20094;-75
2021/04/02 08:36:45;;;;;;;9.05;1.42;;;8.10;99.90;;;;;;5056514;28;20039;-74
2021/04/02 08:39:11;;;;;;;;;;;8.10;99.90;;;;;;5056765;28;20039;-74
2021/04/02 08:41:36;;;;;;;8.88;1.23;;;8.00;99.90;;;;;;5078779;28;19990;-72
2021/04/02 08:44:02;;;;;;;8.10;1.10;;;8.00;99.90;;;;;;5083079;28;20024;-74
2021/04/02 08:46:43;;;;;;;10.98;0.98;;;7.90;99.90;;;;;;5078982;28;20424;-72
2021/04/02 08:49:10;;;;;;;13.77;2.38;;;7.80;99.90;;;;;;5057322;28;20401;-73
2021/04/02 08:51:37;;;;;;;10.53;1.67;;;7.90;99.90;;;;;;5081841;28;20013;-73
2021/04/02 08:54:04;;;;;;;12.95;1.35;;;7.90;99.90;;;;;;5050355;28;20095;-74
2021/04/02 08:56:32;;;;;;;10.93;1.45;;;8.00;99.90;;;;;;5071534;28;20009;-73
2021/04/02 08:59:01;;;;;;;6.47;1.40;;;8.10;99.90;;;;;;5058403;28;20120;-74
2021/04/02 09:01:27;;;;;;;11.88;1.52;;;8.20;99.90;;;;;;5058445;28;20048;-74
2021/04/02 09:03:54;;;;;;;14.70;1.02;;;8.10;99.90;;;;;;5057213;28;20028;-74
2021/04/02 09:06:20;;;;;;;13.85;1.42;;;8.10;99.90;;;;;;5072855;28;20123;-75
2021/04/02 09:08:46;;;;;;;11.43;1.35;;;8.10;99.90;;;;;;5063754;28;20152;-74
2021/04/02 09:11:13;;;;;;;8.65;1.83;;;8.20;99.90;;;;;;5052767;28;20024;-75
2021/04/02 09:13:44;;;;;;;6.07;0.93;;;8.20;99.90;;;;;;5054559;28;20106;-75
2021/04/02 09:16:15;;;;;;;9.18;1.40;;;8.30;99.90;;;;;;5055747;28;20013;-74
2021/04/02 09:18:53;;;;;;;7.00;1.70;;;8.10;99.90;;;;;;5067046;28;20033;-74
2021/04/02 09:21:21;;;;;;;3.45;1.38;;;8.00;99.90;;;;;;5050680;28;20101;-74
2021/04/02 09:23:53;;;;;;;6.25;1.60;;;8.00;99.90;;;;;;5068718;28;20013;-74
2021/04/02 09:26:20;;;;;;;4.28;1.23;;;8.10;99.90;;;;;;5071888;28;20040;-73
2021/04/02 09:28:47;;;;;;;11.98;0.95;;;8.20;99.90;;;;;;5069084;28;20043;-75
2021/04/02 09:31:13;;;;;;;5.20;1.17;;;8.30;99.90;;;;;;5068991;28;20027;-75
2021/04/02 09:33:42;;;;;;;7.38;1.20;;;8.30;99.90;;;;;;5071153;28;20016;-75
2021/04/02 09:36:12;;;;;;;6.28;1.50;;;8.40;99.90;;;;;;5073512;28;20036;-76
2021/04/02 09:38:38;;;;;;;8.80;1.27;;;8.50;99.90;;;;;;5052938;28;20036;-74
2021/04/02 09:41:03;;;;;;;7.50;2.35;;;8.60;99.90;;;;;;5070435;28;20024;-74
2021/04/02 09:43:48;;;;;;;12.50;2.55;;;8.40;99.90;;;;;;5072742;28;20051;-74
2021/04/02 09:46:28;;;;;;;5.28;1.00;;;8.50;99.90;;;;;;5071786;28;20384;-75
2021/04/02 09:49:12;;;;;;;9.27;1.08;;;8.40;99.90;;;;;;5055565;28;20071;-74
2021/04/02 09:51:52;;;;;;;6.30;1.95;;;8.50;99.90;;;;;;5073333;28;20031;-74
2021/04/02 09:54:19;;;;;;;10.82;1.20;;;8.40;99.90;;;;;;5055260;28;20166;-74
2021/04/02 09:56:47;;;;;;;3.60;0.98;;;8.40;99.90;;;;;;5058251;28;20033;-76
2021/04/02 09:59:14;;;;;;;8.50;1.83;;;8.40;99.90;;;;;;5060702;28;20043;-75
2021/04/02 10:01:40;;;;;;;7.65;1.75;;;8.40;99.90;;;;;;5052097;28;20035;-75
2021/04/02 10:04:07;;;;;;;5.65;1.20;;;8.50;99.90;;;;;;5067130;28;20085;-75
2021/04/02 10:06:33;;;;;;;3.88;1.60;;;8.50;99.90;;;;;;5074673;28;20029;-74
2021/04/02 10:08:59;;;;;;;7.38;1.20;;;8.60;99.90;;;;;;5074522;28;20029;-74
2021/04/02 10:11:26;;;;;;;10.32;1.60;;;8.80;99.90;;;;;;5069113;28;20453;-75
2021/04/02 10:13:52;;;;;;;4.70;1.15;;;8.90;99.90;;;;;;5084330;28;20043;-75
2021/04/02 10:16:19;;;;;;;6.45;1.10;;;8.90;99.90;;;;;;5087671;28;20007;-75
2021/04/02 10:18:47;;;;;;;10.70;1.75;;;9.00;99.90;;;;;;5072516;28;20072;-73
2021/04/02 10:21:13;;;;;;;;;;;8.90;99.90;;;;;;5079801;28;20025;-75
2021/04/02 10:23:39;;;;;;;5.35;1.25;;;9.00;99.90;;;;;;5065488;28;19984;-73
2021/04/02 10:26:04;;;;;;;2.55;1.02;;;8.80;99.90;;;;;;5064110;28;20028;-73
2021/04/02 10:28:31;;;;;;;7.10;0.95;;;8.80;99.90;;;;;;5093386;28;20102;-75
2021/04/02 10:30:57;;;;;;;9.13;1.38;;;8.80;99.90;;;;;;5082810;28;20454;-75
2021/04/02 10:33:23;;;;;;;10.48;1.67;;;8.80;99.90;;;;;;5076444;28;21311;-73
2021/04/02 10:35:49;;;;;;;17.27;1.85;;;8.80;99.90;;;;;;5055146;28;20055;-75
2021/04/02 10:38:15;;;;;;;16.92;1.58;;;8.80;99.90;;;;;;5060373;28;20531;-80
2021/04/02 10:40:41;;;;;;;12.75;1.17;;;8.80;99.90;;;;;;5057982;28;20033;-73
2021/04/02 10:43:07;;;;;;;7.75;1.25;;;8.90;99.90;;;;;;5070080;28;20094;-74
2021/04/02 10:45:33;;;;;;;12.32;1.60;;;8.80;99.90;;;;;;5056247;28;20026;-74
2021/04/02 10:48:00;;;;;;;11.93;1.23;;;8.80;99.90;;;;;;5069956;28;20081;-79
2021/04/02 10:50:28;;;;;;;6.10;1.08;;;8.90;99.90;;;;;;5077228;28;20554;-80
2021/04/02 10:52:54;;;;;;;4.65;1.35;;;8.90;99.90;;;;;;5062070;28;20084;-80
2021/04/02 10:55:21;;;;;;;11.88;1.83;;;8.70;99.90;;;;;;5057341;28;20053;-76
2021/04/02 10:57:47;;;;;;;6.97;1.38;;;8.70;99.90;;;;;;5060070;28;20033;-80
2021/04/02 11:00:15;;;;;;;13.30;1.50;;;8.80;99.90;;;;;;5056769;28;20124;-77
2021/04/02 11:02:41;;;;;;;13.32;3.10;;;8.70;99.90;;;;;;5065743;28;20547;-77
2021/04/02 11:05:08;;;;;;;4.85;1.20;;;8.60;99.90;;;;;;5075657;28;20033;-77
2021/04/02 11:07:33;;;;;;;7.80;1.45;;;8.60;99.90;;;;;;5076135;28;20402;-77
2021/04/02 11:09:59;;;;;;;14.57;2.08;;;8.60;99.90;;;;;;5056979;28;20112;-79
2021/04/02 11:12:28;;;;;;;7.70;1.40;;;8.70;99.90;;;;;;5075556;28;20369;-81
2021/04/02 11:14:55;;;;;;;8.75;1.92;;;8.80;99.90;;;;;;5075278;28;20025;-81
2021/04/02 11:17:22;;;;;;;9.93;1.48;;;8.70;99.90;;;;;;5056057;28;20041;-82
2021/04/02 11:19:48;;;;;;;6.60;1.38;;;8.70;99.90;;;;;;5072508;28;20030;-80
2021/04/02 11:22:14;;;;;;;9.85;1.55;;;8.70;99.90;;;;;;5057676;28;20029;-81
2021/04/02 11:24:39;;;;;;;9.80;1.20;;;8.70;99.90;;;;;;5075771;28;20036;-81
2021/04/02 11:27:05;;;;;;;10.68;1.48;;;8.70;99.90;;;;;;5056332;28;20115;-81
2021/04/02 11:29:31;;;;;;;13.05;1.08;;;8.80;99.90;;;;;;5053623;28;20163;-81
2021/04/02 11:31:56;;;;;;;9.60;1.08;;;8.80;99.90;;;;;;5047580;28;20483;-80
2021/04/02 11:34:22;;;;;;;12.73;3.17;;;8.90;99.90;;;;;;5044083;28;20056;-81
2021/04/02 11:36:48;;;;;;;5.63;1.27;;;8.90;99.90;;;;;;5048683;28;20028;-81
2021/04/02 11:39:13;;;;;;;13.25;1.75;;;9.20;99.90;;;;;;5070845;28;20029;-76
2021/04/02 11:41:39;;;;;;;5.75;0.85;;;9.40;99.90;;;;;;5073020;28;20033;-77
2021/04/02 11:44:05;;;;;;;9.45;1.88;;;9.50;99.90;;;;;;5059592;28;20027;-79
2021/04/02 11:46:31;;;;;;;8.00;1.15;;;9.30;99.90;;;;;;5057225;28;20047;-81
2021/04/02 11:48:56;;;;;;;15.13;2.15;;;9.20;99.90;;;;;;5085821;28;20051;-76
2021/04/02 11:51:22;;;;;;;9.18;1.67;;;9.10;99.90;;;;;;5076872;28;20074;-81
2021/04/02 11:53:48;;;;;;;13.15;1.65;;;9.10;99.90;;;;;;5094523;28;20048;-78
2021/04/02 11:56:13;;;;;;;5.28;1.52;;;9.10;99.90;;;;;;5089436;28;20055;-79
2021/04/02 11:58:39;;;;;;;5.65;1.45;;;9.20;99.90;;;;;;5057685;28;20033;-81
2021/04/02 12:01:05;;;;;;;16.77;1.90;;;9.20;99.90;;;;;;5060034;28;20078;-75
2021/04/02 12:03:30;;;;;;;5.28;1.20;;;9.10;99.90;;;;;;5054177;28;20036;-82
2021/04/02 12:05:56;;;;;;;5.10;1.30;;;9.10;99.90;;;;;;5075841;28;20095;-82
2021/04/02 12:08:22;;;;;;;5.85;1.33;;;9.10;99.90;;;;;;5050649;28;20029;-81
2021/04/02 12:10:47;;;;;;;7.75;1.52;;;9.10;99.90;;;;;;5058639;28;20029;-80
2021/04/02 12:13:13;;;;;;;7.25;1.38;;;9.00;99.90;;;;;;5054673;28;20074;-78
2021/04/02 12:15:39;;;;;;;10.13;3.40;;;9.10;99.90;;;;;;5072191;28;20111;-81
2021/04/02 12:18:05;;;;;;;21.52;1.55;;;9.20;99.90;;;;;;5064696;28;20158;-80
2021/04/02 12:20:32;;;;;;;10.77;2.35;;;9.30;99.90;;;;;;5052663;28;20472;-80
2021/04/02 12:22:57;;;;;;;11.90;1.58;;;9.20;99.90;;;;;;5074776;28;20486;-80
2021/04/02 12:25:23;;;;;;;8.05;1.20;;;9.00;99.90;;;;;;5075752;28;20117;-81
2021/04/02 12:27:48;;;;;;;4.00;1.27;;;8.90;99.90;;;;;;5054958;28;20502;-80
2021/04/02 12:30:15;;;;;;;6.97;1.48;;;8.90;99.90;;;;;;5074680;28;20059;-80
2021/04/02 12:32:42;;;;;;;11.82;1.90;;;8.90;99.90;;;;;;5073529;28;20021;-82
2021/04/02 12:35:10;;;;;;;13.60;2.33;;;8.90;99.90;;;;;;5071137;28;20032;-80
2021/04/02 12:37:37;;;;;;;13.20;1.55;;;9.00;99.90;;;;;;5073821;28;20027;-81
2021/04/02 12:40:09;;;;;;;12.15;1.60;;;8.90;99.90;;;;;;5056472;28;20120;-82
2021/04/02 12:42:35;;;;;;;10.02;1.83;;;8.90;99.90;;;;;;5056720;28;20455;-80
2021/04/02 12:45:00;;;;;;;9.70;1.40;;;8.80;99.90;;;;;;5055459;28;20032;-81
2021/04/02 12:47:26;;;;;;;8.27;1.33;;;8.80;99.90;;;;;;5055414;28;20499;-80
2021/04/02 12:49:52;;;;;;;6.18;1.40;;;8.70;99.90;;;;;;5074023;28;20036;-80
2021/04/02 12:52:17;;;;;;;8.50;2.10;;;8.80;99.90;;;;;;5074035;28;20025;-81
2021/04/02 12:54:43;;;;;;;16.70;3.25;;;8.70;99.90;;;;;;5072798;28;20043;-80
2021/04/02 12:57:09;;;;;;;5.47;1.20;;;8.70;99.90;;;;;;5073675;28;20047;-80
2021/04/02 12:59:34;;;;;;;8.25;1.48;;;8.60;99.90;;;;;;5073060;28;20115;-79
2021/04/02 13:02:00;;;;;;;5.35;1.15;;;8.70;99.90;;;;;;5055444;28;20045;-81